createdAt,value
2022-10-07T00:00:45.333Z,1024.57
2022-10-07T00:01:45.370Z,1024.57
2022-10-07T00:02:45.358Z,1024.54
2022-10-07T00:03:45.277Z,1024.54
2022-10-07T00:04:45.293Z,1024.51
2022-10-07T00:05:45.250Z,1024.49
2022-10-07T00:06:45.269Z,1024.52
2022-10-07T00:07:45.721Z,1024.55
2022-10-07T00:08:45.254Z,1024.57
2022-10-07T00:09:45.241Z,1024.56
2022-10-07T00:10:45.231Z,1024.59
2022-10-07T00:11:45.287Z,1024.55
2022-10-07T00:12:45.242Z,1024.55
2022-10-07T00:13:45.244Z,1024.56
2022-10-07T00:14:45.221Z,1024.52
2022-10-07T00:15:45.216Z,1024.57
2022-10-07T00:16:45.346Z,1024.59
2022-10-07T00:17:45.421Z,1024.59
2022-10-07T00:18:45.195Z,1024.60
2022-10-07T00:19:45.197Z,1024.53
2022-10-07T00:20:45.191Z,1024.57
2022-10-07T00:21:45.188Z,1024.54
2022-10-07T00:22:45.184Z,1024.57
2022-10-07T00:23:45.186Z,1024.52
2022-10-07T00:24:45.167Z,1024.56
2022-10-07T00:25:45.179Z,1024.56
2022-10-07T00:26:45.166Z,1024.55
2022-10-07T00:27:45.688Z,1024.52
2022-10-07T00:28:45.178Z,1024.51
2022-10-07T00:29:45.156Z,1024.47
2022-10-07T00:30:45.183Z,1024.51
2022-10-07T00:31:45.186Z,1024.52
2022-10-07T00:32:45.144Z,1024.52
2022-10-07T00:33:45.138Z,1024.54
2022-10-07T00:34:45.129Z,1024.53
2022-10-07T00:35:45.118Z,1024.54
2022-10-07T00:36:45.127Z,1024.52
2022-10-07T00:37:45.440Z,1024.49
2022-10-07T00:38:45.107Z,1024.53
2022-10-07T00:39:45.098Z,1024.55
2022-10-07T00:40:45.104Z,1024.54
2022-10-07T00:41:45.109Z,1024.56
2022-10-07T00:42:45.088Z,1024.55
2022-10-07T00:43:45.085Z,1024.49
2022-10-07T00:44:45.076Z,1024.43
2022-10-07T00:45:45.094Z,1024.40
2022-10-07T00:46:45.067Z,1024.35
2022-10-07T00:47:45.360Z,1024.36
2022-10-07T00:48:45.090Z,1024.37
2022-10-07T00:49:45.072Z,1024.33
2022-10-07T00:50:45.063Z,1024.35
2022-10-07T00:51:45.051Z,1024.32
2022-10-07T00:52:45.043Z,1024.38
2022-10-07T00:53:45.045Z,1024.40
2022-10-07T00:54:45.057Z,1024.29
2022-10-07T00:55:45.043Z,1024.27
2022-10-07T00:56:45.034Z,1024.29
2022-10-07T00:57:45.389Z,1024.27
2022-10-07T00:58:45.026Z,1024.29
2022-10-07T00:59:45.019Z,1024.27
2022-10-07T01:00:45.005Z,1024.26
2022-10-07T01:01:45.069Z,1024.26
2022-10-07T01:02:45.082Z,1024.30
2022-10-07T01:03:45.005Z,1024.32
2022-10-07T01:04:44.986Z,1024.27
2022-10-07T01:05:45.024Z,1024.24
2022-10-07T01:06:44.989Z,1024.27
2022-10-07T01:07:45.351Z,1024.16
2022-10-07T01:08:45.030Z,1024.18
2022-10-07T01:09:44.976Z,1024.18
2022-10-07T01:10:44.967Z,1024.19
2022-10-07T01:11:44.965Z,1024.18
2022-10-07T01:12:44.962Z,1024.11
2022-10-07T01:13:44.966Z,1024.15
2022-10-07T01:14:44.952Z,1024.17
2022-10-07T01:15:44.956Z,1024.18
2022-10-07T01:16:44.987Z,1024.22
2022-10-07T01:17:45.308Z,1024.19
2022-10-07T01:18:44.929Z,1024.19
2022-10-07T01:19:44.940Z,1024.18
2022-10-07T01:20:44.932Z,1024.14
2022-10-07T01:21:44.918Z,1024.11
2022-10-07T01:22:44.929Z,1024.10
2022-10-07T01:23:44.912Z,1024.11
2022-10-07T01:24:44.908Z,1024.03
2022-10-07T01:25:44.903Z,1024.06
2022-10-07T01:26:44.897Z,1024.05
2022-10-07T01:27:45.282Z,1023.98
2022-10-07T01:28:44.957Z,1024.00
2022-10-07T01:29:44.890Z,1023.97
2022-10-07T01:30:44.906Z,1023.96
2022-10-07T01:31:44.882Z,1023.91
2022-10-07T01:32:44.872Z,1023.89
2022-10-07T01:33:44.870Z,1023.84
2022-10-07T01:34:44.867Z,1023.83
2022-10-07T01:35:44.867Z,1023.85
2022-10-07T01:36:44.868Z,1023.86
2022-10-07T01:37:45.136Z,1023.85
2022-10-07T01:38:44.847Z,1023.80
2022-10-07T01:39:44.854Z,1023.83
2022-10-07T01:40:44.844Z,1023.81
2022-10-07T01:41:44.842Z,1023.81
2022-10-07T01:42:44.832Z,1023.79
2022-10-07T01:43:44.841Z,1023.83
2022-10-07T01:44:44.825Z,1023.80
2022-10-07T01:45:44.889Z,1023.81
2022-10-07T01:46:44.819Z,1023.82
2022-10-07T01:47:45.165Z,1023.82
2022-10-07T01:48:44.801Z,1023.80
2022-10-07T01:49:44.797Z,1023.77
2022-10-07T01:50:44.791Z,1023.74
2022-10-07T01:51:44.797Z,1023.72
2022-10-07T01:52:44.787Z,1023.72
2022-10-07T01:53:44.789Z,1023.70
2022-10-07T01:54:44.781Z,1023.69
2022-10-07T01:55:44.778Z,1023.70
2022-10-07T01:56:44.822Z,1023.69
2022-10-07T01:57:45.114Z,1023.65
2022-10-07T01:58:44.778Z,1023.65
2022-10-07T01:59:44.775Z,1023.63
2022-10-07T02:00:44.769Z,1023.60
2022-10-07T02:01:44.781Z,1023.61
2022-10-07T02:02:44.793Z,1023.60
2022-10-07T02:03:44.808Z,1023.61
2022-10-07T02:04:44.741Z,1023.59
2022-10-07T02:05:44.724Z,1023.58
2022-10-07T02:06:44.729Z,1023.56
2022-10-07T02:07:45.141Z,1023.58
2022-10-07T02:08:44.722Z,1023.54
2022-10-07T02:09:44.726Z,1023.52
2022-10-07T02:10:44.720Z,1023.49
2022-10-07T02:11:44.708Z,1023.52
2022-10-07T02:12:44.741Z,1023.57
2022-10-07T02:13:44.700Z,1023.59
2022-10-07T02:14:44.687Z,1023.57
2022-10-07T02:15:44.740Z,1023.49
2022-10-07T02:16:44.676Z,1023.50
2022-10-07T02:17:45.001Z,1023.46
2022-10-07T02:18:44.669Z,1023.44
2022-10-07T02:19:44.664Z,1023.50
2022-10-07T02:20:44.666Z,1023.50
2022-10-07T02:21:44.655Z,1023.49
2022-10-07T02:22:44.645Z,1023.45
2022-10-07T02:23:44.647Z,1023.47
2022-10-07T02:24:44.642Z,1023.48
2022-10-07T02:25:44.637Z,1023.46
2022-10-07T02:26:44.648Z,1023.45
2022-10-07T02:27:44.886Z,1023.46
2022-10-07T02:28:44.635Z,1023.51
2022-10-07T02:29:44.633Z,1023.46
2022-10-07T02:30:44.640Z,1023.45
2022-10-07T02:31:44.645Z,1023.48
2022-10-07T02:32:44.611Z,1023.42
2022-10-07T02:33:44.611Z,1023.41
2022-10-07T02:34:44.602Z,1023.40
2022-10-07T02:35:44.597Z,1023.40
2022-10-07T02:36:44.583Z,1023.40
2022-10-07T02:37:44.875Z,1023.35
2022-10-07T02:38:44.581Z,1023.32
2022-10-07T02:39:44.575Z,1023.37
2022-10-07T02:40:44.575Z,1023.37
2022-10-07T02:41:44.585Z,1023.35
2022-10-07T02:42:44.563Z,1023.33
2022-10-07T02:43:44.560Z,1023.31
2022-10-07T02:44:44.559Z,1023.29
2022-10-07T02:45:44.547Z,1023.31
2022-10-07T02:46:44.614Z,1023.27
2022-10-07T02:47:44.807Z,1023.26
2022-10-07T02:48:44.539Z,1023.28
2022-10-07T02:49:44.535Z,1023.26
2022-10-07T02:50:44.516Z,1023.21
2022-10-07T02:51:44.544Z,1023.19
2022-10-07T02:52:44.522Z,1023.18
2022-10-07T02:53:44.508Z,1023.19
2022-10-07T02:54:44.510Z,1023.29
2022-10-07T02:55:44.499Z,1023.21
2022-10-07T02:56:44.494Z,1023.17
2022-10-07T02:57:44.821Z,1023.20
2022-10-07T02:58:44.485Z,1023.16
2022-10-07T02:59:44.482Z,1023.14
2022-10-07T03:00:44.482Z,1023.14
2022-10-07T03:01:44.504Z,1023.12
2022-10-07T03:02:44.463Z,1023.15
2022-10-07T03:03:44.495Z,1023.12
2022-10-07T03:04:44.461Z,1023.13
2022-10-07T03:05:44.451Z,1023.15
2022-10-07T03:06:44.455Z,1023.16
2022-10-07T03:07:44.745Z,1023.16
2022-10-07T03:08:44.458Z,1023.15
2022-10-07T03:09:44.438Z,1023.12
2022-10-07T03:10:44.441Z,1023.13
2022-10-07T03:11:44.427Z,1023.14
2022-10-07T03:12:44.419Z,1023.08
2022-10-07T03:13:44.414Z,1023.10
2022-10-07T03:14:44.405Z,1023.03
2022-10-07T03:15:44.450Z,1023.06
2022-10-07T03:16:44.511Z,1023.02
2022-10-07T03:17:44.610Z,1023.02
2022-10-07T03:18:44.395Z,1023.04
2022-10-07T03:19:44.385Z,1022.99
2022-10-07T03:20:44.385Z,1023.01
2022-10-07T03:21:44.387Z,1022.97
2022-10-07T03:22:44.374Z,1022.98
2022-10-07T03:23:44.368Z,1022.99
2022-10-07T03:24:44.363Z,1022.97
2022-10-07T03:25:44.360Z,1022.99
2022-10-07T03:26:44.355Z,1022.95
2022-10-07T03:27:44.571Z,1022.98
2022-10-07T03:28:44.426Z,1022.98
2022-10-07T03:29:44.347Z,1023.01
2022-10-07T03:30:44.357Z,1022.99
2022-10-07T03:31:44.338Z,1022.98
2022-10-07T03:32:44.350Z,1023.02
2022-10-07T03:33:44.347Z,1023.01
2022-10-07T03:34:44.327Z,1022.98
2022-10-07T03:35:44.326Z,1022.93
2022-10-07T03:36:44.314Z,1022.95
2022-10-07T03:37:44.551Z,1022.91
2022-10-07T03:38:44.299Z,1022.92
2022-10-07T03:39:44.302Z,1022.93
2022-10-07T03:40:44.310Z,1022.92
2022-10-07T03:41:44.284Z,1022.88
2022-10-07T03:42:44.281Z,1022.86
2022-10-07T03:43:44.276Z,1022.85
2022-10-07T03:44:44.280Z,1022.80
2022-10-07T03:45:44.283Z,1022.85
2022-10-07T03:46:44.338Z,1022.75
2022-10-07T03:47:44.516Z,1022.74
2022-10-07T03:48:44.255Z,1022.76
2022-10-07T03:49:44.247Z,1022.73
2022-10-07T03:50:44.242Z,1022.71
2022-10-07T03:51:44.243Z,1022.76
2022-10-07T03:52:44.253Z,1022.74
2022-10-07T03:53:44.242Z,1022.74
2022-10-07T03:54:44.224Z,1022.79
2022-10-07T03:55:44.215Z,1022.77
2022-10-07T03:56:44.213Z,1022.75
2022-10-07T03:57:44.420Z,1022.71
2022-10-07T03:58:44.206Z,1022.70
2022-10-07T03:59:44.194Z,1022.68
2022-10-07T04:00:44.193Z,1022.69
2022-10-07T04:01:44.263Z,1022.70
2022-10-07T04:02:44.258Z,1022.68
2022-10-07T04:03:44.191Z,1022.69
2022-10-07T04:04:44.187Z,1022.68
2022-10-07T04:05:44.170Z,1022.67
2022-10-07T04:06:44.172Z,1022.66
2022-10-07T04:07:44.390Z,1022.68
2022-10-07T04:08:44.153Z,1022.67
2022-10-07T04:09:44.154Z,1022.64
2022-10-07T04:10:44.149Z,1022.67
2022-10-07T04:11:44.151Z,1022.64
2022-10-07T04:12:44.142Z,1022.66
2022-10-07T04:13:44.131Z,1022.62
2022-10-07T04:14:44.134Z,1022.63
2022-10-07T04:15:44.127Z,1022.62
2022-10-07T04:16:44.194Z,1022.59
2022-10-07T04:17:44.418Z,1022.60
2022-10-07T04:18:44.115Z,1022.57
2022-10-07T04:19:44.102Z,1022.60
2022-10-07T04:20:44.125Z,1022.60
2022-10-07T04:21:44.094Z,1022.60
2022-10-07T04:22:44.088Z,1022.63
2022-10-07T04:23:44.083Z,1022.64
2022-10-07T04:24:44.075Z,1022.59
2022-10-07T04:25:44.070Z,1022.60
2022-10-07T04:26:44.063Z,1022.58
2022-10-07T04:27:51.967Z,1022.58
2022-10-07T04:28:44.104Z,1022.56
2022-10-07T04:29:44.057Z,1022.55
2022-10-07T04:30:44.057Z,1022.55
2022-10-07T04:31:44.082Z,1022.55
2022-10-07T04:32:44.032Z,1022.51
2022-10-07T04:33:44.026Z,1022.53
2022-10-07T04:34:44.028Z,1022.53
2022-10-07T04:35:44.025Z,1022.53
2022-10-07T04:36:44.047Z,1022.50
2022-10-07T04:37:44.313Z,1022.50
2022-10-07T04:38:44.018Z,1022.51
2022-10-07T04:40:00.380Z,1022.48
2022-10-07T04:40:44.004Z,1022.50
2022-10-07T04:41:43.990Z,1022.50
2022-10-07T04:42:43.978Z,1022.49
2022-10-07T04:43:43.981Z,1022.48
2022-10-07T04:44:43.977Z,1022.50
2022-10-07T04:45:43.968Z,1022.43
2022-10-07T04:46:44.027Z,1022.43
2022-10-07T04:47:44.254Z,1022.39
2022-10-07T04:48:43.953Z,1022.41
2022-10-07T04:49:43.958Z,1022.35
2022-10-07T04:50:43.943Z,1022.37
2022-10-07T04:51:43.949Z,1022.34
2022-10-07T04:52:43.940Z,1022.36
2022-10-07T04:53:43.933Z,1022.31
2022-10-07T04:54:43.926Z,1022.28
2022-10-07T04:55:43.931Z,1022.32
2022-10-07T04:56:43.926Z,1022.28
2022-10-07T04:57:44.183Z,1022.29
2022-10-07T04:58:43.902Z,1022.26
2022-10-07T04:59:43.901Z,1022.23
2022-10-07T05:00:43.953Z,1022.26
2022-10-07T05:01:43.933Z,1022.24
2022-10-07T05:02:43.890Z,1022.24
2022-10-07T05:03:43.885Z,1022.24
2022-10-07T05:04:43.871Z,1022.26
2022-10-07T05:05:43.879Z,1022.23
2022-10-07T05:06:43.876Z,1022.21
2022-10-07T05:07:44.165Z,1022.21
2022-10-07T05:08:43.855Z,1022.20
2022-10-07T05:09:43.843Z,1022.16
2022-10-07T05:10:43.840Z,1022.14
2022-10-07T05:11:43.839Z,1022.16
2022-10-07T05:12:43.848Z,1022.15
2022-10-07T05:13:43.826Z,1022.14
2022-10-07T05:14:43.859Z,1022.11
2022-10-07T05:15:43.811Z,1022.14
2022-10-07T05:16:43.837Z,1022.13
2022-10-07T05:17:44.147Z,1022.14
2022-10-07T05:18:43.805Z,1022.13
2022-10-07T05:19:43.826Z,1022.08
2022-10-07T05:20:43.807Z,1022.12
2022-10-07T05:21:43.783Z,1022.12
2022-10-07T05:22:43.809Z,1022.09
2022-10-07T05:23:43.775Z,1022.09
2022-10-07T05:24:43.767Z,1022.09
2022-10-07T05:25:43.763Z,1022.08
2022-10-07T05:26:43.770Z,1022.09
2022-10-07T05:27:44.096Z,1022.07
2022-10-07T05:28:43.836Z,1022.07
2022-10-07T05:29:43.756Z,1022.04
2022-10-07T05:30:43.757Z,1022.06
2022-10-07T05:31:43.816Z,1022.05
2022-10-07T05:32:43.725Z,1022.01
2022-10-07T05:33:43.733Z,1022.00
2022-10-07T05:34:43.723Z,1021.98
2022-10-07T05:35:43.723Z,1022.00
2022-10-07T05:36:43.714Z,1021.95
2022-10-07T05:37:47.541Z,1021.98
2022-10-07T05:38:43.705Z,1021.94
2022-10-07T05:39:43.687Z,1021.90
2022-10-07T05:40:43.701Z,1021.90
2022-10-07T05:41:45.873Z,1021.90
2022-10-07T05:42:43.691Z,1021.88
2022-10-07T05:43:43.687Z,1021.87
2022-10-07T05:44:43.680Z,1021.85
2022-10-07T05:45:43.746Z,1021.85
2022-10-07T05:46:43.674Z,1021.91
2022-10-07T05:47:44.010Z,1021.89
2022-10-07T05:48:43.640Z,1021.86
2022-10-07T05:49:43.642Z,1021.90
2022-10-07T05:50:43.646Z,1021.84
2022-10-07T05:51:43.625Z,1021.84
2022-10-07T05:52:43.626Z,1021.86
2022-10-07T05:53:43.622Z,1021.84
2022-10-07T05:54:43.642Z,1021.85
2022-10-07T05:55:43.608Z,1021.88
2022-10-07T05:56:43.616Z,1021.83
2022-10-07T05:57:43.866Z,1021.81
2022-10-07T05:58:43.594Z,1021.84
2022-10-07T05:59:43.588Z,1021.84
2022-10-07T06:00:43.598Z,1021.88
2022-10-07T06:01:43.614Z,1021.86
2022-10-07T06:02:43.684Z,1021.85
2022-10-07T06:03:43.569Z,1021.84
2022-10-07T06:04:43.567Z,1021.82
2022-10-07T06:05:43.614Z,1021.89
2022-10-07T06:06:43.568Z,1021.83
2022-10-07T06:07:43.775Z,1021.87
2022-10-07T06:08:43.551Z,1021.88
2022-10-07T06:09:43.544Z,1021.84
2022-10-07T06:10:43.550Z,1021.86
2022-10-07T06:11:43.535Z,1021.90
2022-10-07T06:12:43.550Z,1021.92
2022-10-07T06:13:43.532Z,1021.92
2022-10-07T06:14:43.564Z,1021.84
2022-10-07T06:15:43.522Z,1021.88
2022-10-07T06:16:43.594Z,1021.85
2022-10-07T06:17:43.769Z,1021.86
2022-10-07T06:18:43.506Z,1021.86
2022-10-07T06:19:43.507Z,1021.82
2022-10-07T06:20:43.499Z,1021.83
2022-10-07T06:21:43.496Z,1021.85
2022-10-07T06:22:43.484Z,1021.88
2022-10-07T06:23:43.579Z,1021.87
2022-10-07T06:24:43.494Z,1021.83
2022-10-07T06:25:43.475Z,1021.83
2022-10-07T06:26:43.476Z,1021.83
2022-10-07T06:27:43.953Z,1021.83
2022-10-07T06:28:43.582Z,1021.86
2022-10-07T06:29:43.437Z,1021.79
2022-10-07T06:30:43.505Z,1021.78
2022-10-07T06:31:43.430Z,1021.78
2022-10-07T06:32:43.511Z,1021.75
2022-10-07T06:33:43.427Z,1021.74
2022-10-07T06:34:43.410Z,1021.77
2022-10-07T06:35:43.415Z,1021.75
2022-10-07T06:36:43.413Z,1021.77
2022-10-07T06:37:43.740Z,1021.80
2022-10-07T06:38:43.401Z,1021.83
2022-10-07T06:39:43.443Z,1021.85
2022-10-07T06:40:43.417Z,1021.78
2022-10-07T06:41:43.468Z,1021.79
2022-10-07T06:42:43.465Z,1021.81
2022-10-07T06:43:43.374Z,1021.87
2022-10-07T06:44:43.375Z,1021.85
2022-10-07T06:45:43.471Z,1021.79
2022-10-07T06:46:43.366Z,1021.82
2022-10-07T06:47:43.770Z,1021.79
2022-10-07T06:48:43.355Z,1021.77
2022-10-07T06:49:43.363Z,1021.80
2022-10-07T06:50:43.336Z,1021.79
2022-10-07T06:51:43.366Z,1021.84
2022-10-07T06:52:43.683Z,1021.82
2022-10-07T06:53:43.373Z,1021.83
2022-10-07T06:54:43.322Z,1021.84
2022-10-07T06:55:43.313Z,1021.85
2022-10-07T06:56:43.350Z,1021.84
2022-10-07T06:57:56.058Z,1021.80
2022-10-07T06:58:43.303Z,1021.79
2022-10-07T06:59:43.305Z,1021.81
2022-10-07T07:00:43.316Z,1021.80
2022-10-07T07:01:43.320Z,1021.78
2022-10-07T07:02:43.364Z,1021.84
2022-10-07T07:03:43.298Z,1021.81
2022-10-07T07:04:43.305Z,1021.79
2022-10-07T07:05:45.794Z,1021.80
2022-10-07T07:06:43.259Z,1021.78
2022-10-07T07:07:43.538Z,1021.83
2022-10-07T07:08:43.283Z,1021.78
2022-10-07T07:09:43.257Z,1021.84
2022-10-07T07:10:43.251Z,1021.84
2022-10-07T07:11:43.237Z,1021.88
2022-10-07T07:12:43.732Z,1021.87
2022-10-07T07:13:45.356Z,1021.86
2022-10-07T07:14:43.234Z,1021.86
2022-10-07T07:15:43.224Z,1021.87
2022-10-07T07:16:43.305Z,1021.88
2022-10-07T07:17:43.605Z,1021.87
2022-10-07T07:18:43.206Z,1021.88
2022-10-07T07:19:43.212Z,1021.91
2022-10-07T07:20:43.210Z,1021.98
2022-10-07T07:21:44.024Z,1022.10
2022-10-07T07:22:43.203Z,1022.08
2022-10-07T07:23:43.196Z,1022.20
2022-10-07T07:24:43.190Z,1022.46
2022-10-07T07:25:43.201Z,1022.74
2022-10-07T07:26:43.178Z,1022.74
2022-10-07T07:27:43.607Z,1022.73
2022-10-07T07:28:43.271Z,1022.78
2022-10-07T07:29:43.183Z,1022.83
2022-10-07T07:30:43.256Z,1022.86
2022-10-07T07:31:43.189Z,1022.78
2022-10-07T07:32:43.211Z,1022.79
2022-10-07T07:33:43.201Z,1022.75
2022-10-07T07:34:43.305Z,1022.66
2022-10-07T07:35:43.224Z,1022.56
2022-10-07T07:36:43.220Z,1022.46
2022-10-07T07:37:43.623Z,1022.43
2022-10-07T07:38:43.208Z,1022.40
2022-10-07T07:39:43.210Z,1022.34
2022-10-07T07:40:43.228Z,1022.29
2022-10-07T07:41:43.227Z,1022.27
2022-10-07T07:42:43.242Z,1022.26
2022-10-07T07:43:43.258Z,1022.26
2022-10-07T07:44:43.256Z,1022.23
2022-10-07T07:45:43.317Z,1022.20
2022-10-07T07:46:43.287Z,1022.20
2022-10-07T07:47:43.664Z,1022.21
2022-10-07T07:48:43.304Z,1022.22
2022-10-07T07:49:43.299Z,1022.18
2022-10-07T07:50:43.320Z,1022.17
2022-10-07T07:51:43.343Z,1022.20
2022-10-07T07:52:43.357Z,1022.20
2022-10-07T07:53:43.357Z,1022.11
2022-10-07T07:54:43.374Z,1022.12
2022-10-07T07:55:43.374Z,1022.08
2022-10-07T07:56:43.392Z,1022.15
2022-10-07T07:57:43.696Z,1022.13
2022-10-07T07:58:43.413Z,1022.14
2022-10-07T07:59:43.419Z,1022.19
2022-10-07T08:00:43.427Z,1022.20
2022-10-07T08:01:43.442Z,1022.13
2022-10-07T08:02:43.511Z,1022.06
2022-10-07T08:03:43.504Z,1022.08
2022-10-07T08:04:43.471Z,1021.99
2022-10-07T08:05:43.480Z,1021.98
2022-10-07T08:06:43.488Z,1021.97
2022-10-07T08:07:43.892Z,1021.97
2022-10-07T08:08:43.551Z,1021.92
2022-10-07T08:09:43.531Z,1021.92
2022-10-07T08:10:43.915Z,1021.94
2022-10-07T08:11:43.565Z,1021.93
2022-10-07T08:12:43.584Z,1021.89
2022-10-07T08:13:43.587Z,1021.94
2022-10-07T08:14:43.598Z,1021.83
2022-10-07T08:15:43.707Z,1021.85
2022-10-07T08:16:43.614Z,1021.89
2022-10-07T08:17:44.007Z,1021.86
2022-10-07T08:18:43.661Z,1021.87
2022-10-07T08:19:43.668Z,1021.88
2022-10-07T08:20:43.676Z,1021.87
2022-10-07T08:21:43.681Z,1021.82
2022-10-07T08:22:43.700Z,1021.81
2022-10-07T08:23:43.715Z,1021.84
2022-10-07T08:24:44.393Z,1021.82
2022-10-07T08:25:43.771Z,1021.78
2022-10-07T08:26:43.760Z,1021.74
2022-10-07T08:27:44.179Z,1021.76
2022-10-07T08:28:43.810Z,1021.76
2022-10-07T08:29:43.813Z,1021.69
2022-10-07T08:30:43.825Z,1021.69
2022-10-07T08:31:43.816Z,1021.65
2022-10-07T08:32:43.846Z,1021.67
2022-10-07T08:33:43.870Z,1021.64
2022-10-07T08:34:43.867Z,1021.67
2022-10-07T08:35:43.884Z,1021.63
2022-10-07T08:36:43.900Z,1021.61
2022-10-07T08:37:44.212Z,1021.57
2022-10-07T08:38:50.477Z,1021.54
2022-10-07T08:39:43.919Z,1021.55
2022-10-07T08:40:43.936Z,1021.53
2022-10-07T08:41:43.947Z,1021.51
2022-10-07T08:42:44.003Z,1021.51
2022-10-07T08:43:43.970Z,1021.55
2022-10-07T08:44:43.976Z,1021.50
2022-10-07T08:45:43.980Z,1021.51
2022-10-07T08:46:43.979Z,1021.48
2022-10-07T08:47:44.416Z,1021.48
2022-10-07T08:48:43.998Z,1021.44
2022-10-07T08:49:44.059Z,1021.42
2022-10-07T08:50:44.031Z,1021.40
2022-10-07T08:51:44.019Z,1021.39
2022-10-07T08:52:44.044Z,1021.35
2022-10-07T08:53:44.039Z,1021.32
2022-10-07T08:54:44.047Z,1021.31
2022-10-07T08:55:44.072Z,1021.29
2022-10-07T08:56:44.050Z,1021.24
2022-10-07T08:57:44.314Z,1021.25
2022-10-07T08:58:44.056Z,1021.21
2022-10-07T08:59:44.104Z,1021.27
2022-10-07T09:00:44.065Z,1021.22
2022-10-07T09:01:44.100Z,1021.22
2022-10-07T09:02:44.110Z,1021.22
2022-10-07T09:03:44.089Z,1021.19
2022-10-07T09:04:44.117Z,1021.16
2022-10-07T09:05:44.075Z,1021.16
2022-10-07T09:06:44.074Z,1021.11
2022-10-07T09:07:44.360Z,1021.06
2022-10-07T09:08:44.106Z,1021.05
2022-10-07T09:09:44.130Z,1021.05
2022-10-07T09:10:44.097Z,1021.03
2022-10-07T09:11:44.118Z,1021.04
2022-10-07T09:12:44.116Z,1021.01
2022-10-07T09:13:44.101Z,1020.98
2022-10-07T09:14:44.102Z,1020.99
2022-10-07T09:15:44.225Z,1021.01
2022-10-07T09:16:44.120Z,1020.96
2022-10-07T09:17:44.111Z,1020.93
2022-10-07T09:18:44.103Z,1020.88
2022-10-07T09:19:44.118Z,1020.88
2022-10-07T09:20:44.109Z,1020.89
2022-10-07T09:21:44.157Z,1020.87
2022-10-07T09:22:44.128Z,1020.92
2022-10-07T09:23:44.113Z,1020.87
2022-10-07T09:25:44.105Z,1020.82
2022-10-07T09:26:44.107Z,1020.78
2022-10-07T09:27:44.476Z,1020.80
2022-10-07T09:28:44.206Z,1020.79
2022-10-07T09:29:44.116Z,1020.82
2022-10-07T09:30:44.211Z,1020.77
2022-10-07T09:31:44.113Z,1020.77
2022-10-07T09:32:44.124Z,1020.72
2022-10-07T09:33:44.119Z,1020.73
2022-10-07T09:34:44.119Z,1020.72
2022-10-07T09:35:44.123Z,1020.72
2022-10-07T09:36:44.109Z,1020.68
2022-10-07T09:37:44.427Z,1020.71
2022-10-07T09:38:44.125Z,1020.68
2022-10-07T09:39:44.116Z,1020.65
2022-10-07T09:40:44.110Z,1020.67
2022-10-07T09:41:44.123Z,1020.62
2022-10-07T09:42:44.117Z,1020.59
2022-10-07T09:43:44.107Z,1020.60
2022-10-07T09:44:44.122Z,1020.60
2022-10-07T09:45:45.009Z,1020.61
2022-10-07T09:46:44.250Z,1020.57
2022-10-07T09:47:44.490Z,1020.55
2022-10-07T09:48:44.129Z,1020.51
2022-10-07T09:49:44.128Z,1020.52
2022-10-07T09:50:44.133Z,1020.51
2022-10-07T09:51:44.123Z,1020.49
2022-10-07T09:52:44.121Z,1020.50
2022-10-07T09:53:44.180Z,1020.47
2022-10-07T09:54:44.128Z,1020.45
2022-10-07T09:55:44.138Z,1020.46
2022-10-07T09:56:44.197Z,1020.45
2022-10-07T09:57:44.457Z,1020.50
2022-10-07T09:58:44.126Z,1020.46
2022-10-07T09:59:44.114Z,1020.48
2022-10-07T10:00:44.125Z,1020.45
2022-10-07T10:01:44.152Z,1020.42
2022-10-07T10:02:44.239Z,1020.45
2022-10-07T10:03:44.190Z,1020.45
2022-10-07T10:04:44.117Z,1020.44
2022-10-07T10:05:44.139Z,1020.42
2022-10-07T10:06:44.151Z,1020.42
2022-10-07T10:07:44.353Z,1020.43
2022-10-07T10:08:44.132Z,1020.44
2022-10-07T10:09:44.119Z,1020.38
2022-10-07T10:10:44.133Z,1020.40
2022-10-07T10:11:44.123Z,1020.36
2022-10-07T10:12:44.516Z,1020.35
2022-10-07T10:13:44.130Z,1020.38
2022-10-07T10:14:44.144Z,1020.33
2022-10-07T10:15:44.145Z,1020.36
2022-10-07T10:16:44.120Z,1020.30
2022-10-07T10:17:44.123Z,1020.28
2022-10-07T10:18:44.126Z,1020.27
2022-10-07T10:19:44.111Z,1020.23
2022-10-07T10:20:44.115Z,1020.24
2022-10-07T10:21:44.130Z,1020.20
2022-10-07T10:22:44.502Z,1020.19
2022-10-07T10:23:44.118Z,1020.18
2022-10-07T10:24:44.116Z,1020.15
2022-10-07T10:25:44.212Z,1020.12
2022-10-07T10:26:44.228Z,1020.10
2022-10-07T10:27:44.127Z,1020.09
2022-10-07T10:28:44.207Z,1020.05
2022-10-07T10:29:44.180Z,1020.03
2022-10-07T10:30:44.116Z,1020.01
2022-10-07T10:31:44.146Z,1019.99
2022-10-07T10:32:44.498Z,1019.96
2022-10-07T10:33:44.121Z,1019.92
2022-10-07T10:34:44.111Z,1019.92
2022-10-07T10:35:44.105Z,1019.95
2022-10-07T10:36:44.121Z,1019.90
2022-10-07T10:37:44.124Z,1019.88
2022-10-07T10:38:44.103Z,1019.92
2022-10-07T10:39:44.111Z,1019.89
2022-10-07T10:40:44.106Z,1019.88
2022-10-07T10:41:44.106Z,1019.88
2022-10-07T10:42:44.399Z,1019.87
2022-10-07T10:43:44.105Z,1019.79
2022-10-07T10:44:44.154Z,1019.85
2022-10-07T10:45:44.116Z,1019.79
2022-10-07T10:46:47.328Z,1019.79
2022-10-07T10:47:44.117Z,1019.77
2022-10-07T10:48:44.151Z,1019.79
2022-10-07T10:49:44.135Z,1019.75
2022-10-07T10:50:44.106Z,1019.73
2022-10-07T10:51:44.099Z,1019.67
2022-10-07T10:52:44.305Z,1019.67
2022-10-07T10:53:44.104Z,1019.66
2022-10-07T10:54:44.150Z,1019.60
2022-10-07T10:55:44.102Z,1019.57
2022-10-07T10:56:44.098Z,1019.57
2022-10-07T10:57:44.120Z,1019.52
2022-10-07T10:58:44.106Z,1019.51
2022-10-07T10:59:44.119Z,1019.46
2022-10-07T11:00:44.118Z,1019.43
2022-10-07T11:01:44.180Z,1019.43
2022-10-07T11:02:44.582Z,1019.39
2022-10-07T11:03:44.102Z,1019.34
2022-10-07T11:04:44.166Z,1019.38
2022-10-07T11:05:44.098Z,1019.34
2022-10-07T11:06:44.098Z,1019.32
2022-10-07T11:07:44.099Z,1019.29
2022-10-07T11:08:44.149Z,1019.26
2022-10-07T11:09:44.114Z,1019.20
2022-10-07T11:10:44.100Z,1019.18
2022-10-07T11:11:44.108Z,1019.18
2022-10-07T11:12:44.464Z,1019.15
2022-10-07T11:13:44.163Z,1019.13
2022-10-07T11:14:44.112Z,1019.16
2022-10-07T11:15:44.318Z,1019.13
2022-10-07T11:16:44.108Z,1019.10
2022-10-07T11:17:44.104Z,1019.06
2022-10-07T11:18:44.092Z,1019.06
2022-10-07T11:19:44.092Z,1019.01
2022-10-07T11:20:44.983Z,1019.02
2022-10-07T11:21:44.101Z,1018.99
2022-10-07T11:22:44.441Z,1018.98
2022-10-07T11:23:44.094Z,1018.94
2022-10-07T11:24:44.114Z,1018.93
2022-10-07T11:25:44.096Z,1018.91
2022-10-07T11:26:44.091Z,1018.83
2022-10-07T11:27:44.092Z,1018.87
2022-10-07T11:28:44.140Z,1018.80
2022-10-07T11:29:44.144Z,1018.81
2022-10-07T11:30:44.135Z,1018.85
2022-10-07T11:31:44.198Z,1018.81
2022-10-07T11:32:44.460Z,1018.72
2022-10-07T11:33:44.084Z,1018.77
2022-10-07T11:34:44.089Z,1018.74
2022-10-07T11:35:44.092Z,1018.79
2022-10-07T11:36:44.080Z,1018.76
2022-10-07T11:37:44.081Z,1018.75
2022-10-07T11:38:44.097Z,1018.75
2022-10-07T11:39:44.097Z,1018.70
2022-10-07T11:40:44.091Z,1018.68
2022-10-07T11:41:44.087Z,1018.66
2022-10-07T11:42:44.350Z,1018.65
2022-10-07T11:43:44.110Z,1018.66
2022-10-07T11:44:44.076Z,1018.63
2022-10-07T11:45:44.101Z,1018.59
2022-10-07T11:46:44.149Z,1018.62
2022-10-07T11:47:44.079Z,1018.50
2022-10-07T11:48:44.085Z,1018.50
2022-10-07T11:49:44.081Z,1018.55
2022-10-07T11:50:44.092Z,1018.52
2022-10-07T11:51:44.087Z,1018.48
2022-10-07T11:52:44.316Z,1018.47
2022-10-07T11:53:44.086Z,1018.47
2022-10-07T11:54:44.110Z,1018.44
2022-10-07T11:55:44.084Z,1018.38
2022-10-07T11:56:44.097Z,1018.35
2022-10-07T11:57:44.082Z,1018.37
2022-10-07T11:58:44.080Z,1018.33
2022-10-07T11:59:44.093Z,1018.32
2022-10-07T12:00:44.119Z,1018.31
2022-10-07T12:01:44.202Z,1018.26
2022-10-07T12:02:44.440Z,1018.27
2022-10-07T12:03:44.069Z,1018.27
2022-10-07T12:04:44.166Z,1018.30
2022-10-07T12:05:44.069Z,1018.20
2022-10-07T12:06:44.080Z,1018.24